»·PEaware :: DAL1369 KSLC-KPDX

DAL1369 :: KSLC-KPDX

FLIGHT INFORMATION

Flight Status: Arrived
Operator:
Delta Air Lines
More flights by this operator :: More flights under this callsign
Pilot: Joe P. (13940)
Aircraft: BOEING 737-800
(B738)
More flights by this aircraft type
Origin: KSLC Salt Lake City Intl
United States
Destination: KPDX Portland Intl
United States
More flights between these airports :: More routes between these airports
Route: CGULL1 TWF BROPH JOTBA HHOOD4
File this flight plan on PilotEdge
Remarks: RMK / SIMBRIEF / FLYING RW FLIGHT, 1 hour LATE . . .
Altitude:
(Current/Filed)
40,000ft
Speed:
(Current/Filed)
456kts
Departed: 22-Oct-20 10:41 AM
Arrived: 22-Oct-20 12:30 PM
Distance/Time
Traveled:
546nm/1:49
Distance/Time
To Go:
Arrived

Flight Plot

Page will automatically refresh every two minutes.

Flight plan parsing failed; only flown route is shown


Map Options




Map Legend


Flown Route
Filed Route
Departure Airport
Arrival Airport
Navaid (VOR, NDB)
Fix

Horizontal Profiles

Position Reports

Time Latitude Longitude Heading Altitude Ground
Speed
22-Oct-20 09:14 40.788747 -111.981883 99 4235ft 0kts
22-Oct-20 09:15 40.788747 -111.981883 99 4235ft 0kts
22-Oct-20 09:16 40.788747 -111.981883 99 4235ft 0kts
22-Oct-20 09:17 40.788747 -111.981883 99 4235ft 0kts
22-Oct-20 09:18 40.788747 -111.981883 99 4235ft 0kts
22-Oct-20 09:19 40.788747 -111.981883 99 4235ft 0kts
22-Oct-20 09:20 40.788747 -111.981883 99 4235ft 0kts
22-Oct-20 09:21 40.788747 -111.981883 99 4235ft 0kts
22-Oct-20 09:22 40.788747 -111.981883 99 4235ft 0kts
22-Oct-20 09:23 40.788747 -111.981883 99 4235ft 0kts
22-Oct-20 09:24 40.788747 -111.981883 99 4235ft 0kts
22-Oct-20 09:25 40.788747 -111.981883 99 4235ft 0kts
22-Oct-20 09:26 40.788747 -111.981883 99 4235ft 0kts
22-Oct-20 09:27 40.788747 -111.981883 99 4235ft 0kts
22-Oct-20 09:28 40.788747 -111.981883 99 4235ft 0kts
22-Oct-20 09:29 40.788747 -111.981883 99 4235ft 0kts
22-Oct-20 09:30 40.788747 -111.981883 99 4235ft 0kts
22-Oct-20 09:31 40.788747 -111.981883 99 4235ft 0kts
22-Oct-20 09:32 40.788747 -111.981883 99 4235ft 0kts
22-Oct-20 09:33 40.788747 -111.981883 99 4235ft 0kts
22-Oct-20 09:34 40.788747 -111.981883 99 4235ft 0kts
22-Oct-20 09:35 40.788747 -111.981883 99 4235ft 0kts
22-Oct-20 09:36 40.788747 -111.981883 99 4235ft 0kts
22-Oct-20 09:37 40.788747 -111.981883 99 4235ft 0kts
22-Oct-20 09:38 40.788747 -111.981883 99 4235ft 0kts
22-Oct-20 09:39 40.788747 -111.981883 99 4235ft 0kts
22-Oct-20 09:40 40.788747 -111.981883 99 4235ft 0kts
22-Oct-20 09:41 40.788747 -111.981883 99 4235ft 0kts
22-Oct-20 09:42 40.788747 -111.981883 99 4235ft 0kts
22-Oct-20 09:43 40.788747 -111.981883 99 4235ft 0kts
22-Oct-20 09:44 40.788747 -111.981883 99 4235ft 0kts
22-Oct-20 09:45 40.788747 -111.981883 99 4235ft 0kts
22-Oct-20 09:46 40.788747 -111.981883 99 4235ft 0kts
22-Oct-20 09:47 40.788747 -111.981883 99 4235ft 0kts
22-Oct-20 09:48 40.788747 -111.981883 99 4235ft 0kts
22-Oct-20 09:49 40.788747 -111.981883 99 4235ft 0kts
22-Oct-20 09:50 40.788747 -111.981883 99 4235ft 0kts
22-Oct-20 09:51 40.788747 -111.981883 99 4235ft 0kts
22-Oct-20 09:52 40.788747 -111.981883 99 4235ft 0kts
22-Oct-20 09:54 40.788747 -111.981883 99 4235ft 0kts
22-Oct-20 09:55 40.788747 -111.981883 99 4235ft 0kts
22-Oct-20 09:56 40.788747 -111.981883 99 4235ft 0kts
22-Oct-20 09:57 40.788747 -111.981883 99 4235ft 0kts
22-Oct-20 09:58 40.788747 -111.981883 99 4235ft 0kts
22-Oct-20 09:59 40.788747 -111.981883 99 4235ft 0kts
22-Oct-20 10:00 40.788747 -111.981883 99 4235ft 0kts
22-Oct-20 10:01 40.788747 -111.981883 99 4235ft 0kts
22-Oct-20 10:02 40.788747 -111.981883 99 4235ft 0kts
22-Oct-20 10:03 40.788747 -111.981883 99 4235ft 0kts
22-Oct-20 10:04 40.788747 -111.981883 99 4235ft 0kts
22-Oct-20 10:05 40.788747 -111.981883 99 4235ft 0kts
22-Oct-20 10:06 40.788747 -111.981883 99 4235ft 0kts
22-Oct-20 10:07 40.788747 -111.981883 99 4235ft 0kts
22-Oct-20 10:08 40.788747 -111.981883 99 4235ft 0kts
22-Oct-20 10:09 40.788747 -111.981883 99 4235ft 0kts
22-Oct-20 10:10 40.788747 -111.981883 99 4235ft 0kts
22-Oct-20 10:11 40.788747 -111.981883 99 4235ft 0kts
22-Oct-20 10:12 40.788747 -111.981883 99 4235ft 0kts
22-Oct-20 10:12 40.788747 -111.981883 99 4235ft 0kts
22-Oct-20 10:14 40.788747 -111.981883 99 4235ft 0kts
22-Oct-20 10:14 40.788747 -111.981883 99 4235ft 0kts
22-Oct-20 10:15 40.788747 -111.981883 99 4235ft 0kts
22-Oct-20 10:16 40.788747 -111.981883 99 4235ft 0kts
22-Oct-20 10:17 40.788747 -111.981883 99 4235ft 0kts
22-Oct-20 10:18 40.788747 -111.981883 99 4235ft 0kts
22-Oct-20 10:19 40.788747 -111.981883 99 4235ft 0kts
22-Oct-20 10:20 40.788747 -111.981883 99 4235ft 0kts
22-Oct-20 10:21 40.788747 -111.981883 99 4235ft 0kts
22-Oct-20 10:22 40.788747 -111.981883 99 4235ft 0kts
22-Oct-20 10:23 40.788747 -111.981883 99 4235ft 0kts
22-Oct-20 10:24 40.788747 -111.981883 99 4235ft 0kts
22-Oct-20 10:25 40.788782 -111.982274 90 4235ft 2kts
22-Oct-20 10:26 40.788557 -111.982922 5 4235ft 0kts
22-Oct-20 10:27 40.788557 -111.982922 5 4235ft 0kts
22-Oct-20 10:28 40.788558 -111.982922 5 4235ft 0kts
22-Oct-20 10:29 40.788560 -111.982922 5 4235ft 0kts
22-Oct-20 10:30 40.790057 -111.980271 81 4235ft 13kts
22-Oct-20 10:31 40.790373 -111.977801 106 4235ft 9kts
22-Oct-20 10:32 40.786069 -111.976676 174 4235ft 20kts
22-Oct-20 10:33 40.780486 -111.976049 169 4235ft 18kts
22-Oct-20 10:34 40.776623 -111.975118 178 4235ft 12kts
22-Oct-20 10:35 40.774520 -111.974814 133 4235ft 0kts
22-Oct-20 10:36 40.774520 -111.974814 133 4235ft 0kts
22-Oct-20 10:37 40.774520 -111.974814 133 4235ft 0kts
22-Oct-20 10:38 40.774496 -111.974781 133 4235ft 0kts
22-Oct-20 10:39 40.775048 -111.973175 357 4235ft 5kts
22-Oct-20 10:40 40.798174 -111.975515 355 4725ft 166kts
22-Oct-20 10:41 40.846272 -111.999419 332 7276ft 212kts
22-Oct-20 10:42 40.906615 -112.040138 326 9149ft 254kts
22-Oct-20 10:43 40.939936 -112.119584 294 11884ft 247kts
22-Oct-20 10:44 40.974143 -112.199305 294 13869ft 255kts
22-Oct-20 10:45 41.008065 -112.279371 294 17010ft 248kts
22-Oct-20 10:46 41.042201 -112.360281 294 20116ft 254kts
22-Oct-20 10:47 41.084949 -112.438039 316 22478ft 294kts
22-Oct-20 10:48 41.162327 -112.503585 319 23247ft 361kts
22-Oct-20 10:49 41.246035 -112.587295 315 24567ft 386kts
22-Oct-20 10:50 41.323495 -112.685796 305 26391ft 386kts
22-Oct-20 10:51 41.396388 -112.792887 306 28010ft 394kts
22-Oct-20 10:52 41.468960 -112.903555 305 29388ft 401kts
22-Oct-20 10:53 41.541797 -113.015827 304 31131ft 397kts
22-Oct-20 10:54 41.613385 -113.126414 304 32845ft 391kts
22-Oct-20 10:55 41.684517 -113.235428 305 34416ft 386kts
22-Oct-20 10:56 41.754475 -113.343681 304 35864ft 382kts
22-Oct-20 10:57 41.823235 -113.450680 305 37206ft 377kts
22-Oct-20 10:58 41.891047 -113.556459 306 38417ft 373kts
22-Oct-20 10:59 41.958362 -113.661932 305 39362ft 373kts
22-Oct-20 11:00 42.026281 -113.768226 305 40202ft 374kts
22-Oct-20 11:01 42.093986 -113.875375 306 40261ft 374kts
22-Oct-20 11:02 42.161377 -113.982355 305 40260ft 374kts
22-Oct-20 11:03 42.228846 -114.089205 306 40269ft 374kts
22-Oct-20 11:04 42.296549 -114.196087 305 40271ft 375kts
22-Oct-20 11:05 42.364162 -114.303743 305 40278ft 374kts
22-Oct-20 11:06 42.431252 -114.411339 305 40275ft 375kts
22-Oct-20 11:07 42.498492 -114.519126 305 40276ft 374kts
22-Oct-20 11:08 42.566159 -114.626251 306 40281ft 374kts
22-Oct-20 11:09 42.633243 -114.734057 306 40279ft 374kts
22-Oct-20 11:10 42.700514 -114.842594 304 40281ft 373kts
22-Oct-20 11:11 42.760157 -114.957473 301 40283ft 372kts
22-Oct-20 11:12 42.816068 -115.075768 301 40275ft 372kts
22-Oct-20 11:13 42.871505 -115.194390 300 40265ft 371kts
22-Oct-20 11:14 42.927459 -115.312937 301 40312ft 373kts
22-Oct-20 11:15 42.983433 -115.431551 300 40287ft 371kts
22-Oct-20 11:16 43.039054 -115.550347 300 40283ft 370kts
22-Oct-20 11:17 43.094224 -115.669059 300 40290ft 370kts
22-Oct-20 11:18 43.149454 -115.788248 299 40307ft 369kts
22-Oct-20 11:19 43.204310 -115.907182 300 40292ft 369kts
22-Oct-20 11:20 43.258903 -116.026020 300 40289ft 368kts
22-Oct-20 11:21 43.313286 -116.144777 300 40285ft 367kts
22-Oct-20 11:22 43.367353 -116.263233 301 40282ft 366kts
22-Oct-20 11:23 43.421366 -116.382546 300 40305ft 366kts
22-Oct-20 11:24 43.475164 -116.501502 300 40322ft 366kts
22-Oct-20 11:25 43.528814 -116.620695 300 40334ft 366kts
22-Oct-20 11:26 43.582297 -116.739959 300 40341ft 365kts
22-Oct-20 11:27 43.635569 -116.859123 300 40348ft 364kts
22-Oct-20 11:28 43.688531 -116.978328 302 40356ft 363kts
22-Oct-20 11:29 43.741310 -117.097483 300 40353ft 362kts
22-Oct-20 11:30 43.793662 -117.216244 300 40380ft 361kts
22-Oct-20 11:31 43.845845 -117.334957 300 40360ft 360kts
22-Oct-20 11:32 43.897760 -117.453784 299 40363ft 359kts
22-Oct-20 11:33 43.949237 -117.571945 299 40372ft 357kts
22-Oct-20 11:34 44.000556 -117.690421 300 40351ft 356kts
22-Oct-20 11:35 44.051572 -117.808211 300 40366ft 356kts
22-Oct-20 11:36 44.102538 -117.926541 301 40349ft 356kts
22-Oct-20 11:37 44.153320 -118.044949 299 40367ft 356kts
22-Oct-20 11:38 44.203925 -118.163477 301 40363ft 357kts
22-Oct-20 11:39 44.254619 -118.282822 300 40373ft 356kts
22-Oct-20 11:40 44.305074 -118.402000 300 40364ft 357kts
22-Oct-20 11:41 44.355576 -118.521862 300 40363ft 358kts
22-Oct-20 11:42 44.406111 -118.642340 300 40370ft 359kts
22-Oct-20 11:43 44.456620 -118.763265 300 40356ft 360kts
22-Oct-20 11:44 44.506947 -118.884191 300 40360ft 360kts
22-Oct-20 11:45 44.557311 -119.005848 300 40359ft 360kts
22-Oct-20 11:46 44.607509 -119.127444 300 40372ft 361kts
22-Oct-20 11:47 44.657695 -119.249640 300 40375ft 361kts
22-Oct-20 11:48 44.707815 -119.372182 301 40380ft 361kts
22-Oct-20 11:49 44.757780 -119.494545 301 40382ft 361kts
22-Oct-20 11:51 44.807585 -119.617603 301 40097ft 364kts
22-Oct-20 11:52 44.857002 -119.739834 301 37593ft 356kts
22-Oct-20 11:53 44.904545 -119.858353 301 35589ft 338kts
22-Oct-20 11:54 44.949460 -119.970508 302 33733ft 320kts
22-Oct-20 11:55 44.992188 -120.077639 303 31962ft 305kts
22-Oct-20 11:56 45.033170 -120.179679 303 30295ft 292kts
22-Oct-20 11:57 45.072094 -120.278094 303 28666ft 279kts
22-Oct-20 11:58 45.109070 -120.372335 303 27060ft 269kts
22-Oct-20 11:59 45.144844 -120.463700 302 25467ft 260kts
22-Oct-20 12:00 45.179628 -120.552956 302 24162ft 265kts
22-Oct-20 12:01 45.215603 -120.646418 302 23254ft 269kts
22-Oct-20 12:02 45.251824 -120.739155 302 22380ft 269kts
22-Oct-20 12:03 45.287674 -120.832439 301 21502ft 268kts
22-Oct-20 12:04 45.323348 -120.926227 301 20620ft 275kts
22-Oct-20 12:05 45.358942 -121.020094 301 19741ft 269kts
22-Oct-20 12:05 45.388816 -121.098733 301 18995ft 267kts
22-Oct-20 12:07 45.428499 -121.206259 295 17974ft 253kts
22-Oct-20 12:07 45.445333 -121.286600 291 16835ft 254kts
22-Oct-20 12:09 45.468924 -121.407505 290 15790ft 278kts
22-Oct-20 12:09 45.486531 -121.494990 290 15038ft 277kts
22-Oct-20 12:10 45.506958 -121.599521 290 14125ft 269kts
22-Oct-20 12:11 45.526921 -121.702040 288 13240ft 268kts
22-Oct-20 12:12 45.533262 -121.811532 276 12328ft 281kts
22-Oct-20 12:13 45.537005 -121.923455 275 11399ft 282kts
22-Oct-20 12:14 45.552676 -122.026822 289 10526ft 268kts
22-Oct-20 12:15 45.574214 -122.129192 288 9639ft 270kts
22-Oct-20 12:16 45.594792 -122.228713 287 8771ft 270kts
22-Oct-20 12:17 45.615860 -122.330855 287 7890ft 265kts
22-Oct-20 12:18 45.636506 -122.431264 287 7024ft 261kts
22-Oct-20 12:19 45.665178 -122.525212 298 6178ft 252kts
22-Oct-20 12:20 45.696209 -122.611211 298 5381ft 234kts
22-Oct-20 12:21 45.725199 -122.693116 298 3966ft 234kts
22-Oct-20 12:22 45.753975 -122.771148 298 3119ft 195kts
22-Oct-20 12:23 45.743497 -122.834615 216 3004ft 196kts
22-Oct-20 12:24 45.693485 -122.826989 141 3017ft 185kts
22-Oct-20 12:25 45.663419 -122.770806 119 2789ft 156kts
22-Oct-20 12:26 45.643204 -122.719895 118 1956ft 144kts
22-Oct-20 12:27 45.623439 -122.669134 120 1189ft 149kts
22-Oct-20 12:28 45.603208 -122.617195 120 375ft 146kts
22-Oct-20 12:29 45.586837 -122.575527 118 38ft 38kts
22-Oct-20 12:30 45.583737 -122.569022 201 38ft 1kts
22-Oct-20 12:31 45.583476 -122.569595 269 38ft 7kts
22-Oct-20 12:32 45.584329 -122.572015 299 38ft 8kts
22-Oct-20 12:33 45.585700 -122.575525 299 38ft 0kts
22-Oct-20 12:34 45.586759 -122.578167 299 38ft 19kts
22-Oct-20 12:35 45.589158 -122.584507 298 38ft 15kts
22-Oct-20 12:36 45.589875 -122.588531 305 38ft 15kts
22-Oct-20 12:37 45.591730 -122.593055 300 38ft 9kts
22-Oct-20 12:38 45.591460 -122.594557 224 38ft 1kts
22-Oct-20 12:39 45.591457 -122.594561 224 38ft 0kts
22-Oct-20 12:40 45.591457 -122.594561 224 38ft 0kts
22-Oct-20 12:41 45.591457 -122.594561 224 38ft 0kts

Navigation Log

Ident Type
Flight plan parsing failed, navigation log unavailable